NOVEMBER,28TH 2022

MET REPORT SMJP 281100Z WIND RWY 11 TDZ VRB BTN 060/ AND 140/1KT VIS RWY 11 TDZ 7KM END 7KM CLD RWY 11 SCT 100FT T24 DP24 QNH 1010HPA QFE RWY 11 1008HPA TREND NOSIG=

 

METAR SMJP 281100Z VRB01KT 7000 SCT001 24/24 Q1010 NOSIG=

METAR SMZO 281100Z 02003KT 9999 FEW010 26/24 Q1010 NOSIG=

METAR SMNI 281100Z NIL=